Mn Pelican — FMLR — position and weather

sailwx.info

Track history (hours):
 
Tides and Currents Weather Stations Pressure Air Temp Water Temp Dewpoint Dewpoint Depression Visibility Wind Speed Wind Dir Waves Ship Positions

Mn Pelican

Last reported at 2017-Mar-25 23:12 UTC. Time now 2017-Mar-27 12:41 UTC.
Position N 49°53' W 003°36'.

Length 155 m; draft 6.2 m.

Type: Ship. MMSI: 228315700.

Date/timePositionNaut miles runAvg speedWind from/ knotsBaromVisibWave heightAir tempDewpointWater temp
2017-Mar-25 23:12N 49°53' W 003°36'1116.9
2017-Mar-25 22:33N 49°59' W 003°22'1716.8
2017-Mar-25 21:33N 50°07' W 002°59'1716.7
2017-Mar-25 20:34N 50°15' W 002°36'3014.9
2017-Mar-25 18:34N 50°31' W 001°57'1111.2
2017-Mar-25 17:33N 50°42' W 001°58'1 1.2
2017-Mar-25 16:33N 50°42' W 001°59'0 0.0
2017-Mar-25 15:33N 50°42' W 001°59'0 0.0
2017-Mar-25 14:33N 50°42' W 001°59'0 0.0
2017-Mar-25 13:32N 50°42' W 001°59'0 0.0
2017-Mar-25 12:32N 50°42' W 001°59'0 0.0
2017-Mar-25 11:31N 50°42' W 001°59'0 0.0
2017-Mar-25 10:31N 50°42' W 001°59'1 0.6
2017-Mar-25 09:33N 50°42' W 001°59'10 9.7
2017-Mar-25 08:33N 50°33' W 001°53'1413.7
2017-Mar-25 07:33N 50°19' W 001°54'1514.5
2017-Mar-25 06:33N 50°05' W 001°51'1212.0
2017-Mar-25 05:33N 49°60' W 002°07'  
2017-Mar-22 12:09N 49°53' W 003°32'1118.4
2017-Mar-22 11:33N 49°60' W 003°18'1918.9
2017-Mar-22 10:34N 50°09' W 002°53'4018.6
2017-Mar-22 08:24N 50°29' W 001°58'1011.5
2017-Mar-22 07:33N 50°38' W 001°54'5 5.1
2017-Mar-22 06:31N 50°42' W 001°59'0 0.0
2017-Mar-22 05:33N 50°42' W 001°59'0 0.0
2017-Mar-22 04:34N 50°42' W 001°59'0 0.0
2017-Mar-22 03:33N 50°42' W 001°59'0 0.0
2017-Mar-22 02:33N 50°42' W 001°59'0 0.0
2017-Mar-22 01:34N 50°42' W 001°59'0 0.0
2017-Mar-22 00:33N 50°42' W 001°59'0 0.0
2017-Mar-21 23:33N 50°42' W 001°59'0 0.0
2017-Mar-21 22:34N 50°42' W 001°59'0 0.0
2017-Mar-21 21:34N 50°42' W 001°59'0 0.0
2017-Mar-21 20:33N 50°42' W 001°59'0 0.1
2017-Mar-21 19:33N 50°42' W 001°60'7 7.0
2017-Mar-21 18:33N 50°37' W 001°53'28515.0
2017-Mar-20 23:31N 46°14' W 004°41'1717.9
2017-Mar-20 22:33N 45°58' W 004°32'79 2.4
2017-Mar-19 13:30N 47°11' W 005°14'1715.1
2017-Mar-19 12:24N 47°27' W 005°23'9713.6
2017-Mar-19 05:17N 49°04' W 005°22'1114.9
2017-Mar-19 04:32N 49°12' W 005°11'4213.0
2017-Mar-19 01:16N 49°54' W 004°57'1315.1
2017-Mar-19 00:25N 49°57' W 004°38'1415.1
2017-Mar-18 23:29N 50°01' W 004°17'1515.1
2017-Mar-18 22:30N 50°04' W 003°55'1414.7
2017-Mar-18 21:33N 50°08' W 003°34'1514.5
2017-Mar-18 20:33N 50°13' W 003°13'1514.6
2017-Mar-18 19:33N 50°18' W 002°51'3514.6
2017-Mar-18 17:09N 50°30' W 001°59'915.0
2017-Mar-18 16:33N 50°38' W 001°54'6 5.5
2017-Mar-18 15:33N 50°42' W 001°59'0 0.0
2017-Mar-18 14:33N 50°42' W 001°59'0 0.0
2017-Mar-18 13:33N 50°42' W 001°59'0 0.0
2017-Mar-18 12:33N 50°42' W 001°59'0 0.0
2017-Mar-18 11:33N 50°42' W 001°59'0 0.0
2017-Mar-18 10:33N 50°42' W 001°59'0 0.1
2017-Mar-18 09:33N 50°42' W 001°59'7 7.2
2017-Mar-18 08:34N 50°37' W 001°52'23112.0
2017-Mar-17 13:19N 47°34' W 005°27'1815.1
2017-Mar-17 12:09N 47°18' W 005°18'3915.1
2017-Mar-17 09:33N 46°42' W 004°57'3815.2
2017-Mar-17 07:04N 46°06' W 004°37'124 5.5
2017-Mar-16 08:32N 44°12' W 003°32'  
Track history (hours):
 
Tides and Currents Weather Stations Pressure Air Temp Water Temp Dewpoint Dewpoint Depression Visibility Wind Speed Wind Dir Waves Ship Positions

Mn Pelican

Last reported at 2017-Mar-25 23:12 UTC. Time now 2017-Mar-27 12:41 UTC.
Position N 49°53' W 003°36'.

Length 155 m; draft 6.2 m.

Type: Ship. MMSI: 228315700.

Date/timePositionNaut miles runAvg speedWind from/ knotsBaromVisibWave heightAir tempDewpointWater temp
2017-Mar-25 23:12N 49°53' W 003°36'1116.9
2017-Mar-25 22:33N 49°59' W 003°22'1716.8
2017-Mar-25 21:33N 50°07' W 002°59'1716.7
2017-Mar-25 20:34N 50°15' W 002°36'3014.9
2017-Mar-25 18:34N 50°31' W 001°57'1111.2
2017-Mar-25 17:33N 50°42' W 001°58'1 1.2
2017-Mar-25 16:33N 50°42' W 001°59'0 0.0
2017-Mar-25 15:33N 50°42' W 001°59'0 0.0
2017-Mar-25 14:33N 50°42' W 001°59'0 0.0
2017-Mar-25 13:32N 50°42' W 001°59'0 0.0
2017-Mar-25 12:32N 50°42' W 001°59'0 0.0
2017-Mar-25 11:31N 50°42' W 001°59'0 0.0
2017-Mar-25 10:31N 50°42' W 001°59'1 0.6
2017-Mar-25 09:33N 50°42' W 001°59'10 9.7
2017-Mar-25 08:33N 50°33' W 001°53'1413.7
2017-Mar-25 07:33N 50°19' W 001°54'1514.5
2017-Mar-25 06:33N 50°05' W 001°51'1212.0
2017-Mar-25 05:33N 49°60' W 002°07'  
2017-Mar-22 12:09N 49°53' W 003°32'1118.4
2017-Mar-22 11:33N 49°60' W 003°18'1918.9
2017-Mar-22 10:34N 50°09' W 002°53'4018.6
2017-Mar-22 08:24N 50°29' W 001°58'1011.5
2017-Mar-22 07:33N 50°38' W 001°54'5 5.1
2017-Mar-22 06:31N 50°42' W 001°59'0 0.0
2017-Mar-22 05:33N 50°42' W 001°59'0 0.0
2017-Mar-22 04:34N 50°42' W 001°59'0 0.0
2017-Mar-22 03:33N 50°42' W 001°59'0 0.0
2017-Mar-22 02:33N 50°42' W 001°59'0 0.0
2017-Mar-22 01:34N 50°42' W 001°59'0 0.0
2017-Mar-22 00:33N 50°42' W 001°59'0 0.0
2017-Mar-21 23:33N 50°42' W 001°59'0 0.0
2017-Mar-21 22:34N 50°42' W 001°59'0 0.0
2017-Mar-21 21:34N 50°42' W 001°59'0 0.0
2017-Mar-21 20:33N 50°42' W 001°59'0 0.1
2017-Mar-21 19:33N 50°42' W 001°60'7 7.0
2017-Mar-21 18:33N 50°37' W 001°53'28515.0
2017-Mar-20 23:31N 46°14' W 004°41'1717.9
2017-Mar-20 22:33N 45°58' W 004°32'79 2.4
2017-Mar-19 13:30N 47°11' W 005°14'1715.1
2017-Mar-19 12:24N 47°27' W 005°23'9713.6
2017-Mar-19 05:17N 49°04' W 005°22'1114.9
2017-Mar-19 04:32N 49°12' W 005°11'4213.0
2017-Mar-19 01:16N 49°54' W 004°57'1315.1
2017-Mar-19 00:25N 49°57' W 004°38'1415.1
2017-Mar-18 23:29N 50°01' W 004°17'1515.1
2017-Mar-18 22:30N 50°04' W 003°55'1414.7
2017-Mar-18 21:33N 50°08' W 003°34'1514.5
2017-Mar-18 20:33N 50°13' W 003°13'1514.6
2017-Mar-18 19:33N 50°18' W 002°51'3514.6
2017-Mar-18 17:09N 50°30' W 001°59'915.0
2017-Mar-18 16:33N 50°38' W 001°54'6 5.5
2017-Mar-18 15:33N 50°42' W 001°59'0 0.0
2017-Mar-18 14:33N 50°42' W 001°59'0 0.0
2017-Mar-18 13:33N 50°42' W 001°59'0 0.0
2017-Mar-18 12:33N 50°42' W 001°59'0 0.0
2017-Mar-18 11:33N 50°42' W 001°59'0 0.0
2017-Mar-18 10:33N 50°42' W 001°59'0 0.1
2017-Mar-18 09:33N 50°42' W 001°59'7 7.2
2017-Mar-18 08:34N 50°37' W 001°52'23112.0
2017-Mar-17 13:19N 47°34' W 005°27'1815.1
2017-Mar-17 12:09N 47°18' W 005°18'3915.1
2017-Mar-17 09:33N 46°42' W 004°57'3815.2
2017-Mar-17 07:04N 46°06' W 004°37'124 5.5
2017-Mar-16 08:32N 44°12' W 003°32'  

Dump ship's entire track history